Terminal Aerodrome Forecast
Issued by NWS Bismarck, ND

Home | Current Version | Previous Version | Text Only | Print | Product List | Glossary Off
Versions: 1 2 3 4 5 6 7 8 9 10 11 12 13 14 15 16 17 18 19

369
FTUS43 KBIS 302321
TAFISN
TAF
KISN 302321Z 0100/0124 34008KT P6SM -SN OVC015
     FM010300 VRB03KT P6SM -SN OVC010
     FM010500 VRB03KT P6SM -SN OVC008
     FM011200 00000KT P6SM OVC003
     FM011700 VRB03KT P6SM OVC010=

USA.gov is the U.S. government's official web portal to all federal, state and local government web resources and services.